createdAt,value
2022-10-25T00:00:35.694Z,68.29
2022-10-25T00:01:35.739Z,66.73
2022-10-25T00:02:35.652Z,60.60
2022-10-25T00:03:35.608Z,61.66
2022-10-25T00:04:35.579Z,58.28
2022-10-25T00:05:35.599Z,58.81
2022-10-25T00:06:35.686Z,65.11
2022-10-25T00:07:35.565Z,70.94
2022-10-25T00:08:35.580Z,59.32
2022-10-25T00:09:35.545Z,56.92
2022-10-25T00:10:35.532Z,48.98
2022-10-25T00:11:35.557Z,49.77
2022-10-25T00:12:35.552Z,70.19
2022-10-25T00:13:36.853Z,70.54
2022-10-25T00:14:35.482Z,66.99
2022-10-25T00:15:35.460Z,71.53
2022-10-25T00:16:35.506Z,62.42
2022-10-25T00:17:35.476Z,66.42
2022-10-25T00:18:35.473Z,56.15
2022-10-25T00:19:35.429Z,65.15
2022-10-25T00:20:35.437Z,68.38
2022-10-25T00:21:35.389Z,65.95
2022-10-25T00:22:35.374Z,61.92
2022-10-25T00:23:35.487Z,55.22
2022-10-25T00:24:35.362Z,59.70
2022-10-25T00:25:35.372Z,65.77
2022-10-25T00:26:35.346Z,66.01
2022-10-25T00:27:35.341Z,66.25
2022-10-25T00:28:35.286Z,53.55
2022-10-25T00:29:35.335Z,65.35
2022-10-25T00:30:35.321Z,62.56
2022-10-25T00:31:35.325Z,72.62
2022-10-25T00:32:35.246Z,60.05
2022-10-25T00:33:35.267Z,69.03
2022-10-25T00:34:35.262Z,59.26
2022-10-25T00:35:35.307Z,59.78
2022-10-25T00:36:35.926Z,73.77
2022-10-25T00:37:35.309Z,61.17
2022-10-25T00:38:35.162Z,54.89
2022-10-25T00:39:35.248Z,67.45
2022-10-25T00:40:35.182Z,67.25
2022-10-25T00:41:35.186Z,68.02
2022-10-25T00:42:35.175Z,64.84
2022-10-25T00:43:35.145Z,68.25
2022-10-25T00:44:35.126Z,68.31
2022-10-25T00:45:35.138Z,63.64
2022-10-25T00:46:35.091Z,69.05
2022-10-25T00:47:35.086Z,70.04
2022-10-25T00:48:35.108Z,69.96
2022-10-25T00:49:35.113Z,62.20
2022-10-25T00:50:35.991Z,69.84
2022-10-25T00:51:35.027Z,70.63
2022-10-25T00:52:35.039Z,66.21
2022-10-25T00:53:35.016Z,70.40
2022-10-25T00:54:35.001Z,60.13
2022-10-25T00:55:35.038Z,48.09
2022-10-25T00:56:35.031Z,52.49
2022-10-25T00:57:34.939Z,72.73
2022-10-25T00:58:34.987Z,64.88
2022-10-25T00:59:35.052Z,60.76
2022-10-25T01:00:34.923Z,68.05
2022-10-25T01:01:35.015Z,69.10
2022-10-25T01:02:35.968Z,68.31
2022-10-25T01:03:34.919Z,71.45
2022-10-25T01:04:34.934Z,72.82
2022-10-25T01:05:35.027Z,65.59
2022-10-25T01:06:34.863Z,71.84
2022-10-25T01:07:35.165Z,69.19
2022-10-25T01:08:34.837Z,74.29
2022-10-25T01:09:34.848Z,64.74
2022-10-25T01:10:35.271Z,64.27
2022-10-25T01:11:34.886Z,62.44
2022-10-25T01:12:34.932Z,71.25
2022-10-25T01:13:35.216Z,53.46
2022-10-25T01:14:34.828Z,71.97
2022-10-25T01:15:34.724Z,63.96
2022-10-25T01:16:34.982Z,65.58
2022-10-25T01:17:34.832Z,67.66
2022-10-25T01:18:34.714Z,52.97
2022-10-25T01:19:34.744Z,60.94
2022-10-25T01:20:34.724Z,61.56
2022-10-25T01:21:34.732Z,60.43
2022-10-25T01:22:34.723Z,69.91
2022-10-25T01:23:34.684Z,63.00
2022-10-25T01:24:34.661Z,72.69
2022-10-25T01:25:34.644Z,58.31
2022-10-25T01:26:34.690Z,65.81
2022-10-25T01:27:34.609Z,50.19
2022-10-25T01:28:34.580Z,64.89
2022-10-25T01:29:34.640Z,61.21
2022-10-25T01:30:34.649Z,64.66
2022-10-25T01:31:34.550Z,57.31
2022-10-25T01:32:34.561Z,61.91
2022-10-25T01:33:34.541Z,68.28
2022-10-25T01:34:34.519Z,73.04
2022-10-25T01:35:34.484Z,68.08
2022-10-25T01:36:34.492Z,69.55
2022-10-25T01:37:34.562Z,65.94
2022-10-25T01:38:34.540Z,61.20
2022-10-25T01:39:34.550Z,65.79
2022-10-25T01:40:34.570Z,62.12
2022-10-25T01:41:34.436Z,69.46
2022-10-25T01:42:34.517Z,70.80
2022-10-25T01:43:34.549Z,72.37
2022-10-25T01:44:34.447Z,70.89
2022-10-25T01:45:34.485Z,68.50
2022-10-25T01:46:34.454Z,68.09
2022-10-25T01:47:34.542Z,69.18
2022-10-25T01:48:34.399Z,63.41
2022-10-25T01:49:34.343Z,68.84
2022-10-25T01:50:34.370Z,56.96
2022-10-25T01:51:36.878Z,65.63
2022-10-25T01:52:34.710Z,63.55
2022-10-25T01:53:34.358Z,64.64
2022-10-25T01:54:34.344Z,60.39
2022-10-25T01:55:34.307Z,69.30
2022-10-25T01:56:34.254Z,67.44
2022-10-25T01:57:34.290Z,61.57
2022-10-25T01:58:34.283Z,65.42
2022-10-25T01:59:34.319Z,70.27
2022-10-25T02:00:34.413Z,62.25
2022-10-25T02:01:34.413Z,65.87
2022-10-25T02:02:34.206Z,66.28
2022-10-25T02:03:34.335Z,64.92
2022-10-25T02:04:35.304Z,59.13
2022-10-25T02:05:34.215Z,68.69
2022-10-25T02:06:34.366Z,60.34
2022-10-25T02:07:34.199Z,68.17
2022-10-25T02:08:34.182Z,62.03
2022-10-25T02:09:34.174Z,62.55
2022-10-25T02:10:34.158Z,54.92
2022-10-25T02:11:34.151Z,65.78
2022-10-25T02:12:34.119Z,57.11
2022-10-25T02:13:34.154Z,66.42
2022-10-25T02:14:34.129Z,66.45
2022-10-25T02:15:34.111Z,69.09
2022-10-25T02:16:34.082Z,70.98
2022-10-25T02:17:34.115Z,70.79
2022-10-25T02:18:34.011Z,69.91
2022-10-25T02:19:34.011Z,68.37
2022-10-25T02:20:34.048Z,73.07
2022-10-25T02:21:33.995Z,69.98
2022-10-25T02:22:34.008Z,71.44
2022-10-25T02:23:34.020Z,66.25
2022-10-25T02:24:34.531Z,64.00
2022-10-25T02:25:33.932Z,62.17
2022-10-25T02:26:33.946Z,64.20
2022-10-25T02:27:33.915Z,68.33
2022-10-25T02:28:33.987Z,67.52
2022-10-25T02:29:33.953Z,69.98
2022-10-25T02:30:34.115Z,67.64
2022-10-25T02:31:33.974Z,69.89
2022-10-25T02:32:33.920Z,68.35
2022-10-25T02:33:33.957Z,67.44
2022-10-25T02:34:33.848Z,70.73
2022-10-25T02:35:33.910Z,72.76
2022-10-25T02:36:33.896Z,70.51
2022-10-25T02:37:33.799Z,71.63
2022-10-25T02:38:33.867Z,70.75
2022-10-25T02:39:33.875Z,71.90
2022-10-25T02:40:34.008Z,61.59
2022-10-25T02:41:33.877Z,71.91
2022-10-25T02:42:33.761Z,71.03
2022-10-25T02:43:33.883Z,73.02
2022-10-25T02:44:33.788Z,71.02
2022-10-25T02:45:33.761Z,69.88
2022-10-25T02:46:33.792Z,68.57
2022-10-25T02:47:33.780Z,73.38
2022-10-25T02:48:33.773Z,70.68
2022-10-25T02:49:33.702Z,72.33
2022-10-25T02:50:33.677Z,72.59
2022-10-25T02:51:33.657Z,69.18
2022-10-25T02:52:33.717Z,71.56
2022-10-25T02:53:33.704Z,70.86
2022-10-25T02:54:33.680Z,72.50
2022-10-25T02:55:33.653Z,65.00
2022-10-25T02:56:33.719Z,73.85
2022-10-25T02:57:33.868Z,70.13
2022-10-25T02:58:33.577Z,74.11
2022-10-25T02:59:33.620Z,71.88
2022-10-25T03:00:35.078Z,72.98
2022-10-25T03:01:34.814Z,72.78
2022-10-25T03:03:07.121Z,72.94
2022-10-25T03:03:34.182Z,72.93
2022-10-25T03:04:33.553Z,71.70
2022-10-25T03:05:33.551Z,73.92
2022-10-25T03:06:33.556Z,70.51
2022-10-25T03:07:33.997Z,76.16
2022-10-25T03:08:33.516Z,75.25
2022-10-25T03:09:33.426Z,71.85
2022-10-25T03:10:33.453Z,74.25
2022-10-25T03:11:33.445Z,73.97
2022-10-25T03:12:33.452Z,72.16
2022-10-25T03:13:33.425Z,72.39
2022-10-25T03:14:33.397Z,73.94
2022-10-25T03:15:33.395Z,77.42
2022-10-25T03:16:33.534Z,75.60
2022-10-25T03:17:33.401Z,72.84
2022-10-25T03:18:33.405Z,73.47
2022-10-25T03:19:33.493Z,74.07
2022-10-25T03:20:33.301Z,72.76
2022-10-25T03:21:33.324Z,74.39
2022-10-25T03:22:33.279Z,71.49
2022-10-25T03:23:33.258Z,75.42
2022-10-25T03:24:33.228Z,75.34
2022-10-25T03:25:33.265Z,75.64
2022-10-25T03:26:33.307Z,74.99
2022-10-25T03:27:33.343Z,74.06
2022-10-25T03:28:33.188Z,74.56
2022-10-25T03:29:33.183Z,74.64
2022-10-25T03:30:33.182Z,76.15
2022-10-25T03:31:33.188Z,74.46
2022-10-25T03:32:33.188Z,76.29
2022-10-25T03:33:33.257Z,74.14
2022-10-25T03:34:33.127Z,75.21
2022-10-25T03:35:33.219Z,76.41
2022-10-25T03:36:33.128Z,74.05
2022-10-25T03:37:33.135Z,74.75
2022-10-25T03:38:33.120Z,74.95
2022-10-25T03:39:33.113Z,76.37
2022-10-25T03:40:33.081Z,75.93
2022-10-25T03:41:33.993Z,75.03
2022-10-25T03:42:33.052Z,75.47
2022-10-25T03:43:33.095Z,78.36
2022-10-25T03:44:33.020Z,74.31
2022-10-25T03:45:33.051Z,77.44
2022-10-25T03:46:33.064Z,76.76
2022-10-25T03:47:32.973Z,75.92
2022-10-25T03:48:33.009Z,75.56
2022-10-25T03:49:33.060Z,75.89
2022-10-25T03:50:32.978Z,76.44
2022-10-25T03:51:33.029Z,78.16
2022-10-25T03:52:32.929Z,75.71
2022-10-25T03:53:32.932Z,76.24
2022-10-25T03:54:32.949Z,76.54
2022-10-25T03:55:32.945Z,76.00
2022-10-25T03:56:32.884Z,75.65
2022-10-25T03:57:32.870Z,75.41
2022-10-25T03:58:32.948Z,77.28
2022-10-25T03:59:32.841Z,77.16
2022-10-25T04:00:32.885Z,76.34
2022-10-25T04:01:32.917Z,75.33
2022-10-25T04:02:32.854Z,75.54
2022-10-25T04:03:32.834Z,75.77
2022-10-25T04:04:32.805Z,76.20
2022-10-25T04:05:32.780Z,77.76
2022-10-25T04:06:32.861Z,76.63
2022-10-25T04:07:32.813Z,75.81
2022-10-25T04:08:32.894Z,75.33
2022-10-25T04:09:32.763Z,75.80
2022-10-25T04:10:32.758Z,77.20
2022-10-25T04:11:32.698Z,75.08
2022-10-25T04:12:32.706Z,76.28
2022-10-25T04:13:32.685Z,77.46
2022-10-25T04:14:32.693Z,76.43
2022-10-25T04:15:32.678Z,76.30
2022-10-25T04:16:32.637Z,77.73
2022-10-25T04:17:32.603Z,76.67
2022-10-25T04:18:32.648Z,75.82
2022-10-25T04:19:32.673Z,76.26
2022-10-25T04:20:32.657Z,76.09
2022-10-25T04:21:32.590Z,76.91
2022-10-25T04:22:32.641Z,76.72
2022-10-25T04:23:32.566Z,77.12
2022-10-25T04:24:32.562Z,74.73
2022-10-25T04:25:32.686Z,76.90
2022-10-25T04:26:32.610Z,78.97
2022-10-25T04:27:32.585Z,76.66
2022-10-25T04:28:32.542Z,77.47
2022-10-25T04:29:32.500Z,75.75
2022-10-25T04:30:36.472Z,75.78
2022-10-25T04:31:34.477Z,77.83
2022-10-25T04:32:32.471Z,78.35
2022-10-25T04:33:32.550Z,78.09
2022-10-25T04:34:32.442Z,77.63
2022-10-25T04:35:32.470Z,77.31
2022-10-25T04:36:32.406Z,78.09
2022-10-25T04:37:32.834Z,78.93
2022-10-25T04:38:32.378Z,78.10
2022-10-25T04:39:32.375Z,77.93
2022-10-25T04:40:32.461Z,78.54
2022-10-25T04:41:32.370Z,80.11
2022-10-25T04:42:32.358Z,79.12
2022-10-25T04:43:32.331Z,81.40
2022-10-25T04:44:32.327Z,80.28
2022-10-25T04:45:32.314Z,77.98
2022-10-25T04:46:32.287Z,78.50
2022-10-25T04:47:32.298Z,78.41
2022-10-25T04:48:32.307Z,79.66
2022-10-25T04:49:32.291Z,76.69
2022-10-25T04:50:32.459Z,77.17
2022-10-25T04:51:32.832Z,78.55
2022-10-25T04:52:32.251Z,77.72
2022-10-25T04:53:32.247Z,78.62
2022-10-25T04:54:32.253Z,77.04
2022-10-25T04:55:32.234Z,76.22
2022-10-25T04:56:32.211Z,77.84
2022-10-25T04:57:32.231Z,77.86
2022-10-25T04:58:32.216Z,78.69
2022-10-25T04:59:32.136Z,76.62
2022-10-25T05:00:32.143Z,77.30
2022-10-25T05:01:32.260Z,77.64
2022-10-25T05:02:32.147Z,76.99
2022-10-25T05:03:32.136Z,76.54
2022-10-25T05:04:32.089Z,76.94
2022-10-25T05:05:32.059Z,76.44
2022-10-25T05:06:32.044Z,77.49
2022-10-25T05:07:32.060Z,76.88
2022-10-25T05:08:32.056Z,77.23
2022-10-25T05:09:32.104Z,77.47
2022-10-25T05:10:32.037Z,77.83
2022-10-25T05:11:32.079Z,76.23
2022-10-25T05:12:32.011Z,78.77
2022-10-25T05:13:32.017Z,78.85
2022-10-25T05:14:32.031Z,75.82
2022-10-25T05:15:32.953Z,77.30
2022-10-25T05:16:31.959Z,78.05
2022-10-25T05:17:32.000Z,77.81
2022-10-25T05:18:32.015Z,79.21
2022-10-25T05:19:31.921Z,77.10
2022-10-25T05:20:31.939Z,78.31
2022-10-25T05:21:31.903Z,77.51
2022-10-25T05:22:32.864Z,78.41
2022-10-25T05:23:31.891Z,77.56
2022-10-25T05:24:31.883Z,77.46
2022-10-25T05:25:31.886Z,78.66
2022-10-25T05:26:31.872Z,78.55
2022-10-25T05:27:31.808Z,76.81
2022-10-25T05:28:31.833Z,77.13
2022-10-25T05:29:31.844Z,78.62
2022-10-25T05:30:31.784Z,78.15
2022-10-25T05:31:31.809Z,78.49
2022-10-25T05:32:31.787Z,77.30
2022-10-25T05:33:31.753Z,79.49
2022-10-25T05:34:31.767Z,78.00
2022-10-25T05:35:31.760Z,77.32
2022-10-25T05:36:31.772Z,76.96
2022-10-25T05:37:31.769Z,77.29
2022-10-25T05:39:05.109Z,77.12
2022-10-25T05:39:31.778Z,76.90
2022-10-25T05:40:31.684Z,78.16
2022-10-25T05:41:34.591Z,79.02
2022-10-25T05:42:31.649Z,77.40
2022-10-25T05:43:31.630Z,76.58
2022-10-25T05:44:31.730Z,76.27
2022-10-25T05:45:31.621Z,77.87
2022-10-25T05:46:31.652Z,77.67
2022-10-25T05:47:31.584Z,76.45
2022-10-25T05:48:31.599Z,77.82
2022-10-25T05:49:31.630Z,78.17
2022-10-25T05:50:31.685Z,76.81
2022-10-25T05:51:36.123Z,77.66
2022-10-25T05:52:33.582Z,78.47
2022-10-25T05:53:31.527Z,77.89
2022-10-25T05:54:31.535Z,78.54
2022-10-25T05:55:32.499Z,76.97
2022-10-25T05:56:31.497Z,78.37
2022-10-25T05:57:31.591Z,75.78
2022-10-25T05:58:32.361Z,74.13
2022-10-25T05:59:31.448Z,77.10
2022-10-25T06:00:31.523Z,76.69
2022-10-25T06:01:31.596Z,77.94
2022-10-25T06:02:31.592Z,75.91
2022-10-25T06:03:31.486Z,76.67
2022-10-25T06:04:31.441Z,76.93
2022-10-25T06:05:31.458Z,75.97
2022-10-25T06:06:31.407Z,77.72
2022-10-25T06:07:31.407Z,77.52
2022-10-25T06:08:31.419Z,76.34
2022-10-25T06:09:31.365Z,77.55
2022-10-25T06:10:31.355Z,76.61
2022-10-25T06:11:31.339Z,75.78
2022-10-25T06:12:31.331Z,77.35
2022-10-25T06:13:31.508Z,77.55
2022-10-25T06:14:31.388Z,77.27
2022-10-25T06:15:32.355Z,77.90
2022-10-25T06:16:32.801Z,77.86
2022-10-25T06:17:31.412Z,77.11
2022-10-25T06:18:31.252Z,77.04
2022-10-25T06:19:31.296Z,76.74
2022-10-25T06:20:31.317Z,76.59
2022-10-25T06:21:31.272Z,79.25
2022-10-25T06:22:31.307Z,75.87
2022-10-25T06:23:31.248Z,75.32
2022-10-25T06:24:31.184Z,77.58
2022-10-25T06:25:31.209Z,77.38
2022-10-25T06:26:31.186Z,75.99
2022-10-25T06:27:31.178Z,75.95
2022-10-25T06:28:31.160Z,75.74
2022-10-25T06:29:31.171Z,77.22
2022-10-25T06:31:31.122Z,78.11
2022-10-25T06:32:31.143Z,77.20
2022-10-25T06:33:31.128Z,77.93
2022-10-25T06:35:04.743Z,77.05
2022-10-25T06:35:31.192Z,75.37
2022-10-25T06:36:31.298Z,77.14
2022-10-25T06:37:31.439Z,76.29
2022-10-25T06:38:31.078Z,77.13
2022-10-25T06:39:31.173Z,76.25
2022-10-25T06:40:31.028Z,77.87
2022-10-25T06:41:31.024Z,76.63
2022-10-25T06:42:30.993Z,78.10
2022-10-25T06:43:30.960Z,78.04
2022-10-25T06:44:30.992Z,77.41
2022-10-25T06:45:30.976Z,74.35
2022-10-25T06:47:15.926Z,75.28
2022-10-25T06:47:32.917Z,76.22
2022-10-25T06:48:31.090Z,77.24
2022-10-25T06:49:30.908Z,76.65
2022-10-25T06:50:30.944Z,76.21
2022-10-25T06:51:30.913Z,76.40
2022-10-25T06:52:30.861Z,76.80
2022-10-25T06:53:30.901Z,77.17
2022-10-25T06:54:30.918Z,78.35
2022-10-25T06:55:30.858Z,77.53
2022-10-25T06:56:30.841Z,77.24
2022-10-25T06:57:31.277Z,77.21
2022-10-25T06:58:30.893Z,76.69
2022-10-25T06:59:31.497Z,77.71
2022-10-25T07:00:30.791Z,74.94
2022-10-25T07:01:30.899Z,75.47
2022-10-25T07:02:30.849Z,76.26
2022-10-25T07:03:30.794Z,74.70
2022-10-25T07:04:30.810Z,78.04
2022-10-25T07:05:30.894Z,77.41
2022-10-25T07:07:30.747Z,73.96
2022-10-25T07:08:30.714Z,76.28
2022-10-25T07:09:30.718Z,77.13
2022-10-25T07:10:30.699Z,76.65
2022-10-25T07:11:30.693Z,76.19
2022-10-25T07:12:30.662Z,77.53
2022-10-25T07:13:30.671Z,75.33
2022-10-25T07:14:30.631Z,76.58
2022-10-25T07:15:30.675Z,78.54
2022-10-25T07:16:30.688Z,78.49
2022-10-25T07:17:30.579Z,76.34
2022-10-25T07:18:30.589Z,76.61
2022-10-25T07:19:30.574Z,76.13
2022-10-25T07:20:30.546Z,77.25
2022-10-25T07:21:30.570Z,78.84
2022-10-25T07:22:30.513Z,78.89
2022-10-25T07:23:30.700Z,75.91
2022-10-25T07:24:30.519Z,76.51
2022-10-25T07:25:30.478Z,78.05
2022-10-25T07:26:31.107Z,75.35
2022-10-25T07:27:30.474Z,78.17
2022-10-25T07:28:30.483Z,77.23
2022-10-25T07:29:31.081Z,76.13
2022-10-25T07:30:30.492Z,76.26
2022-10-25T07:31:30.529Z,77.74
2022-10-25T07:32:30.430Z,78.59
2022-10-25T07:33:30.436Z,76.59
2022-10-25T07:34:30.401Z,75.45
2022-10-25T07:35:35.472Z,76.46
2022-10-25T07:36:31.393Z,75.11
2022-10-25T07:37:30.396Z,78.63
2022-10-25T07:38:30.354Z,77.16
2022-10-25T07:39:30.407Z,76.81
2022-10-25T07:40:30.338Z,77.75
2022-10-25T07:41:30.396Z,78.33
2022-10-25T07:42:30.379Z,75.98
2022-10-25T07:43:30.361Z,74.65
2022-10-25T07:44:30.345Z,75.83
2022-10-25T07:45:31.267Z,77.10
2022-10-25T07:46:30.344Z,78.21
2022-10-25T07:47:30.321Z,78.23
2022-10-25T07:48:30.297Z,76.99
2022-10-25T07:49:30.296Z,74.91
2022-10-25T07:50:30.265Z,76.52
2022-10-25T07:51:30.367Z,77.53
2022-10-25T07:52:30.196Z,77.77
2022-10-25T07:53:30.205Z,76.89
2022-10-25T07:54:30.294Z,76.78
2022-10-25T07:55:31.037Z,77.13
2022-10-25T07:56:30.175Z,78.26
2022-10-25T07:57:30.190Z,74.58
2022-10-25T07:58:30.173Z,76.30
2022-10-25T07:59:30.175Z,75.90
2022-10-25T08:00:30.157Z,74.00
2022-10-25T08:01:30.146Z,75.94
2022-10-25T08:02:30.125Z,77.36
2022-10-25T08:03:30.165Z,76.08
2022-10-25T08:05:30.069Z,76.94
2022-10-25T08:06:30.060Z,76.30
2022-10-25T08:07:30.037Z,77.36
2022-10-25T08:08:30.064Z,73.91
2022-10-25T08:09:38.552Z,73.39
2022-10-25T08:10:31.989Z,77.86
2022-10-25T08:11:30.002Z,77.47
2022-10-25T08:12:30.880Z,77.07
2022-10-25T08:13:29.946Z,77.56
2022-10-25T08:14:30.134Z,74.89
2022-10-25T08:15:29.982Z,77.24
2022-10-25T08:16:30.057Z,75.43
2022-10-25T08:17:29.930Z,78.37
2022-10-25T08:18:29.924Z,76.88
2022-10-25T08:19:29.890Z,78.28
2022-10-25T08:20:49.661Z,79.08
2022-10-25T08:21:31.926Z,78.16
2022-10-25T08:22:29.930Z,75.61
2022-10-25T08:23:29.976Z,78.18
2022-10-25T08:24:29.857Z,76.78
2022-10-25T08:25:29.873Z,76.27
2022-10-25T08:26:36.424Z,78.11
2022-10-25T08:27:30.838Z,77.81
2022-10-25T08:28:29.799Z,74.62
2022-10-25T08:29:29.750Z,76.42
2022-10-25T08:30:30.550Z,76.66
2022-10-25T08:31:29.830Z,78.68
2022-10-25T08:32:29.762Z,74.82
2022-10-25T08:33:29.799Z,78.13
2022-10-25T08:34:32.412Z,75.08
2022-10-25T08:35:29.774Z,73.96
2022-10-25T08:36:29.694Z,75.20
2022-10-25T08:37:29.766Z,76.98
2022-10-25T08:38:29.680Z,75.57
2022-10-25T08:39:29.715Z,76.19
2022-10-25T08:40:29.612Z,75.04
2022-10-25T08:41:29.626Z,75.48
2022-10-25T08:42:29.651Z,74.92
2022-10-25T08:43:29.618Z,77.46
2022-10-25T08:44:29.674Z,76.19
2022-10-25T08:45:29.606Z,75.80
2022-10-25T08:46:29.664Z,76.29
2022-10-25T08:47:29.575Z,75.56
2022-10-25T08:48:29.695Z,77.51
2022-10-25T08:49:29.536Z,75.65
2022-10-25T08:50:29.607Z,73.42
2022-10-25T08:51:29.520Z,76.75
2022-10-25T08:52:29.539Z,75.20
2022-10-25T08:53:29.583Z,74.97
2022-10-25T08:54:29.494Z,73.37
2022-10-25T08:55:29.480Z,74.94
2022-10-25T08:56:29.474Z,76.96
2022-10-25T08:57:29.507Z,76.68
2022-10-25T08:58:29.474Z,76.27
2022-10-25T08:59:29.488Z,76.81
2022-10-25T09:00:29.484Z,77.05
2022-10-25T09:01:29.547Z,74.79
2022-10-25T09:02:29.578Z,75.03
2022-10-25T09:03:29.601Z,77.07
2022-10-25T09:04:29.389Z,76.96
2022-10-25T09:05:29.343Z,76.71
2022-10-25T09:06:29.352Z,76.97
2022-10-25T09:07:29.365Z,74.31
2022-10-25T09:08:29.445Z,75.20
2022-10-25T09:09:29.515Z,76.37
2022-10-25T09:10:29.288Z,74.70
2022-10-25T09:11:29.279Z,76.51
2022-10-25T09:12:29.281Z,77.11
2022-10-25T09:13:29.864Z,77.72
2022-10-25T09:14:29.312Z,76.19
2022-10-25T09:15:29.324Z,76.75
2022-10-25T09:16:29.224Z,75.67
2022-10-25T09:17:29.220Z,75.09
2022-10-25T09:18:29.228Z,75.90
2022-10-25T09:19:29.197Z,74.91
2022-10-25T09:20:29.228Z,73.57
2022-10-25T09:21:29.238Z,77.21
2022-10-25T09:22:29.295Z,77.13
2022-10-25T09:23:29.141Z,77.72
2022-10-25T09:24:29.269Z,75.70
2022-10-25T09:25:29.095Z,75.89
2022-10-25T09:26:29.194Z,75.27
2022-10-25T09:27:29.084Z,75.63
2022-10-25T09:28:29.072Z,75.59
2022-10-25T09:29:29.135Z,77.72
2022-10-25T09:30:29.134Z,75.04
2022-10-25T09:31:29.110Z,74.21
2022-10-25T09:32:29.074Z,75.39
2022-10-25T09:33:29.037Z,74.75
2022-10-25T09:34:29.081Z,75.06
2022-10-25T09:35:29.085Z,74.39
2022-10-25T09:36:29.006Z,77.69
2022-10-25T09:37:29.969Z,76.22
2022-10-25T09:38:29.033Z,74.70
2022-10-25T09:39:29.511Z,75.53
2022-10-25T09:40:28.905Z,75.81
2022-10-25T09:41:28.942Z,72.89
2022-10-25T09:42:28.925Z,72.25
2022-10-25T09:43:28.995Z,74.01
2022-10-25T09:44:28.933Z,76.43
2022-10-25T09:45:28.903Z,74.24
2022-10-25T09:46:28.893Z,76.54
2022-10-25T09:47:28.905Z,74.65
2022-10-25T09:48:28.904Z,76.63
2022-10-25T09:49:28.993Z,73.30
2022-10-25T09:50:28.813Z,74.05
2022-10-25T09:51:28.818Z,76.27
2022-10-25T09:52:28.798Z,75.76
2022-10-25T09:53:28.933Z,77.32
2022-10-25T09:54:28.882Z,76.34
2022-10-25T09:55:28.789Z,73.79
2022-10-25T09:56:28.777Z,75.62
2022-10-25T09:57:28.769Z,75.82
2022-10-25T09:58:28.785Z,75.58
2022-10-25T09:59:28.738Z,75.49
2022-10-25T10:00:29.730Z,73.70
2022-10-25T10:01:28.882Z,74.92
2022-10-25T10:02:28.774Z,75.55
2022-10-25T10:03:28.714Z,75.50
2022-10-25T10:04:28.702Z,76.32
2022-10-25T10:05:29.056Z,75.98
2022-10-25T10:06:28.634Z,76.49
2022-10-25T10:07:28.675Z,76.45
2022-10-25T10:08:28.638Z,76.28
2022-10-25T10:09:28.767Z,76.05
2022-10-25T10:10:28.643Z,74.52
2022-10-25T10:11:28.586Z,74.99
2022-10-25T10:12:28.611Z,74.04
2022-10-25T10:13:28.607Z,73.07
2022-10-25T10:14:28.855Z,75.14
2022-10-25T10:15:28.601Z,76.62
2022-10-25T10:16:28.543Z,76.61
2022-10-25T10:17:28.592Z,75.00
2022-10-25T10:18:28.502Z,74.70
2022-10-25T10:19:28.502Z,75.03
2022-10-25T10:20:28.590Z,72.87
2022-10-25T10:21:28.574Z,78.09
2022-10-25T10:22:28.548Z,76.21
2022-10-25T10:23:28.601Z,74.73
2022-10-25T10:24:28.459Z,74.10
2022-10-25T10:25:28.619Z,73.91
2022-10-25T10:26:28.443Z,75.14
2022-10-25T10:27:28.420Z,72.46
2022-10-25T10:28:28.404Z,76.29
2022-10-25T10:29:28.428Z,73.96
2022-10-25T10:30:29.064Z,74.42
2022-10-25T10:31:28.450Z,73.76
2022-10-25T10:32:28.446Z,76.33
2022-10-25T10:33:28.371Z,76.51
2022-10-25T10:34:28.347Z,75.42
2022-10-25T10:35:28.372Z,77.33
2022-10-25T10:36:28.334Z,75.70
2022-10-25T10:37:28.349Z,74.64
2022-10-25T10:38:28.373Z,73.63
2022-10-25T10:39:29.336Z,74.41
2022-10-25T10:40:28.268Z,75.27
2022-10-25T10:41:28.311Z,76.53
2022-10-25T10:42:28.371Z,74.78
2022-10-25T10:43:28.240Z,75.17
2022-10-25T10:44:28.248Z,73.86
2022-10-25T10:45:28.268Z,77.20
2022-10-25T10:46:28.245Z,73.82
2022-10-25T10:47:28.180Z,74.84
2022-10-25T10:48:28.197Z,76.43
2022-10-25T10:49:28.189Z,76.05
2022-10-25T10:50:28.173Z,74.29
2022-10-25T10:51:44.760Z,75.02
2022-10-25T10:52:30.304Z,74.92
2022-10-25T10:53:28.165Z,75.75
2022-10-25T10:54:28.184Z,75.30
2022-10-25T10:55:28.221Z,75.89
2022-10-25T10:56:28.152Z,76.42
2022-10-25T10:57:28.086Z,74.13
2022-10-25T10:58:28.073Z,74.44
2022-10-25T10:59:28.124Z,74.74
2022-10-25T11:00:28.106Z,76.34
2022-10-25T11:01:28.155Z,74.28
2022-10-25T11:02:28.322Z,73.06
2022-10-25T11:03:28.082Z,72.97
2022-10-25T11:04:28.062Z,76.46
2022-10-25T11:05:28.061Z,75.62
2022-10-25T11:06:28.113Z,73.73
2022-10-25T11:07:27.990Z,75.01
2022-10-25T11:08:28.058Z,75.08
2022-10-25T11:09:28.042Z,77.57
2022-10-25T11:10:27.975Z,75.21
2022-10-25T11:11:27.950Z,74.91
2022-10-25T11:12:27.930Z,76.36
2022-10-25T11:13:29.014Z,77.21
2022-10-25T11:14:27.926Z,75.38
2022-10-25T11:15:27.903Z,76.29
2022-10-25T11:16:28.166Z,75.70
2022-10-25T11:17:27.919Z,75.44
2022-10-25T11:18:27.925Z,75.22
2022-10-25T11:19:27.853Z,74.60
2022-10-25T11:20:28.468Z,76.03
2022-10-25T11:21:28.917Z,75.85
2022-10-25T11:22:32.059Z,76.88
2022-10-25T11:23:29.881Z,75.67
2022-10-25T11:24:27.802Z,76.82
2022-10-25T11:25:27.849Z,75.12
2022-10-25T11:26:27.763Z,74.52
2022-10-25T11:27:29.884Z,75.77
2022-10-25T11:28:27.769Z,76.25
2022-10-25T11:29:27.867Z,76.09
2022-10-25T11:30:27.753Z,76.34
2022-10-25T11:31:27.750Z,76.42
2022-10-25T11:32:27.900Z,78.26
2022-10-25T11:33:27.714Z,76.14
2022-10-25T11:34:27.714Z,76.27
2022-10-25T11:35:27.722Z,77.46
2022-10-25T11:36:27.728Z,77.99
2022-10-25T11:37:27.659Z,76.21
2022-10-25T11:38:27.663Z,77.71
2022-10-25T11:39:27.702Z,76.01
2022-10-25T11:40:27.979Z,74.82
2022-10-25T11:41:27.679Z,75.73
2022-10-25T11:42:27.677Z,76.48
2022-10-25T11:43:27.615Z,74.51
2022-10-25T11:44:28.995Z,74.79
2022-10-25T11:45:28.212Z,76.25
2022-10-25T11:46:28.394Z,73.88
2022-10-25T11:47:27.777Z,77.24
2022-10-25T11:48:27.822Z,75.61
2022-10-25T11:49:27.950Z,75.15
2022-10-25T11:50:27.735Z,75.86
2022-10-25T11:51:27.475Z,74.59
2022-10-25T11:52:27.637Z,76.45
2022-10-25T11:53:27.568Z,75.94
2022-10-25T11:54:27.572Z,76.15
2022-10-25T11:55:27.662Z,75.42
2022-10-25T11:56:27.544Z,75.26
2022-10-25T11:57:27.532Z,75.07
2022-10-25T11:58:27.609Z,75.55
2022-10-25T11:59:27.696Z,74.74
2022-10-25T12:01:27.841Z,75.21
2022-10-25T12:02:27.631Z,74.79
2022-10-25T12:03:27.695Z,72.96
2022-10-25T12:04:29.803Z,74.85
2022-10-25T12:05:27.429Z,76.80
2022-10-25T12:06:27.516Z,77.29
2022-10-25T12:07:28.536Z,76.59
2022-10-25T12:08:27.411Z,77.66
2022-10-25T12:09:27.402Z,75.60
2022-10-25T12:10:27.755Z,76.13
2022-10-25T12:11:27.548Z,76.43
2022-10-25T12:12:27.569Z,75.26
2022-10-25T12:13:27.361Z,76.28
2022-10-25T12:14:27.276Z,75.56
2022-10-25T12:15:27.250Z,75.05
2022-10-25T12:16:27.346Z,77.92
2022-10-25T12:17:28.730Z,73.57
2022-10-25T12:18:27.216Z,75.84
2022-10-25T12:19:27.538Z,75.55
2022-10-25T12:20:29.601Z,75.39
2022-10-25T12:21:27.382Z,74.48
2022-10-25T12:22:28.404Z,76.80
2022-10-25T12:23:27.194Z,75.86
2022-10-25T12:24:27.233Z,77.27
2022-10-25T12:25:27.252Z,77.24
2022-10-25T12:26:27.166Z,75.94
2022-10-25T12:27:27.541Z,75.16
2022-10-25T12:28:27.312Z,75.74
2022-10-25T12:29:27.074Z,77.85
2022-10-25T12:30:29.464Z,76.36
2022-10-25T12:31:27.092Z,75.72
2022-10-25T12:32:27.044Z,76.69
2022-10-25T12:33:27.105Z,77.83
2022-10-25T12:34:27.066Z,75.17
2022-10-25T12:35:27.057Z,77.40
2022-10-25T12:36:27.218Z,75.64
2022-10-25T12:37:27.428Z,76.70
2022-10-25T12:38:26.998Z,77.05
2022-10-25T12:39:27.478Z,76.38
2022-10-25T12:40:27.707Z,75.80
2022-10-25T12:41:27.082Z,77.14
2022-10-25T12:42:27.121Z,77.13
2022-10-25T12:43:27.678Z,77.50
2022-10-25T12:44:27.269Z,77.33
2022-10-25T12:45:27.627Z,76.92
2022-10-25T12:46:27.971Z,76.67
2022-10-25T12:47:26.909Z,75.67
2022-10-25T12:48:27.060Z,78.01
2022-10-25T12:50:01.547Z,76.94
2022-10-25T12:50:26.846Z,78.37
2022-10-25T12:51:26.859Z,77.70
2022-10-25T12:52:26.943Z,77.02
2022-10-25T12:53:26.822Z,75.72
2022-10-25T12:54:26.826Z,75.48
2022-10-25T12:55:26.890Z,76.53
2022-10-25T12:56:26.905Z,75.63